Aeroporto :
LOGIN :

Iscrizione | Disclaimer

   EN    FR    IT 

 










Sommario :    VFR   VFR Marginale   IFR   IFR Intensivo   IFR Molto Intensivo
Visibilità : 
Base nubi : 
>= 8 km
>= 3000ft
5 / 8 km
1000 / 3000 ft
1500m / 5 km
500 / 1000 ft
800 / 1500m
200 / 500 ft
< 800m
< 200 ft
Simboli :   Temporali  Nebbia  Neve Forte  Precipitazioni Forti  Vento > 20 kt
SIGMETs :   Varie  Temporali  Ghiacco  Turbolenza  Onda orograficha  Ceneri Vulcaniche






- Altitudine del aeroporto : 31 ft
- Codice IATA : INV


EGPE - Inverness

ULTIMO METAR :
  • 230120Z AUTO VRB01KT 9999 SCT044/// 02/01 Q1002

METARs OBSOLETI :
  • 230050Z AUTO VRB02KT 9999 NCD 02/02 Q1002
  • 230020Z AUTO 06003KT 7000 FEW044/// 02/02 Q1002
  • 222350Z AUTO 09003KT 9999 BKN042/// 02/02 Q1002
  • 222320Z AUTO VRB02KT 6000 FEW044/// 02/02 Q1002
  • 222250Z AUTO 05003KT 6000 FEW032/// 02/02 Q1001

TAF TAF EGPE
Valido dal 23 a 00 ore il 23 a 09 ore UTC


222257Z 2300/2309 05006KT 9999 FEW030
TEMPO 2300/2309 3000 BR
ATIS : +44 1667 464 255



MetMap, La meteo Aeronautica in un colpo d'occhio ! - Copyright ORBIFLY Dicembre 2007 - Disclaimer

ORBIFLY MET'MAP TEAM :

Programmazione e sviluppo : Alexandra Zaïnal
Concezione e sviluppo : Baudouin d'Aumeries
Co-Programmazione e sviluppo : Marc-Olivier Méhu
Supporto tecnico e logistico : Manuel Goepfert
Aiuto per la traduzione : Arnaldo La Scala

Contatto : metmap@orbifly.com




FONTI E CREDITI :

   NOAA